PWSweather.com
Personal Weather Stations
Station Observations
CRAINRR
Siesta Hills, Edelstein, IL 61526

Siesta HillsEdelstein, IL 61526

Lat: 40.9021, Lon: -89.5934

Elevation: 676

Station Type: Lacrosse 2811

High Low Average
Temperature 27.4°F-2.6°C 4.7°F-15.2°C 14.9°F-9.5°C
Dew Point 17.3°F-8.2°C -1.3°F-18.5°C 7.4°F-13.7°C
Winds 4.0 mph 6.4 kmh Calm Calm 1.0 mph SSW1.6 kmh SSW
Wind Gusts 7.2 mph11.6 kmh -- 2.0 mph3.2 kmh
Humidity 82% 60% 72%
Pressure 30.15 in1021.0 mb 30.03 in1016.9 mb -
Precipitation 0.05 in1.3 mm - -
Hour Temp Dew Point Humidity Winds Wind Gusts Pressure Precip Precip Rate Daily Precip Total
12:01 AM 8.3°F-13.2°C 2.0°F-16.7°C 75% 0.7 mph WSW1.1 kmh WSW 1.1 mph1.8 kmh 30.07 in1018.3 mb 0.00 in0.0 mm 0.00 in/hr0.0 mm/hr 0.00 in0.0 mm
12:06 AM 8.1°F-13.3°C 1.8°F-16.8°C 75% 1.1 mph SW1.8 kmh SW 1.1 mph1.8 kmh 30.07 in1018.3 mb 0.00 in0.0 mm 0.00 in/hr0.0 mm/hr 0.00 in0.0 mm
12:11 AM 7.7°F-13.5°C 1.4°F-17.0°C 75% 1.1 mph SW1.8 kmh SW 1.1 mph1.8 kmh 30.07 in1018.3 mb 0.00 in0.0 mm 0.00 in/hr0.0 mm/hr 0.00 in0.0 mm
12:16 AM 7.6°F-13.6°C 1.3°F-17.1°C 75% 1.0 mph SW1.6 kmh SW 1.1 mph1.8 kmh 30.07 in1018.3 mb 0.00 in0.0 mm 0.00 in/hr0.0 mm/hr 0.00 in0.0 mm
12:22 AM 7.4°F-13.7°C 1.1°F-17.2°C 75% 1.0 mph SW1.6 kmh SW 1.1 mph1.8 kmh 30.07 in1018.3 mb 0.00 in0.0 mm 0.00 in/hr0.0 mm/hr 0.00 in0.0 mm
12:27 AM 7.2°F-13.8°C 0.9°F-17.3°C 75% 0.6 mph W1.0 kmh W 1.1 mph1.8 kmh 30.07 in1018.3 mb 0.00 in0.0 mm 0.00 in/hr0.0 mm/hr 0.00 in0.0 mm
12:32 AM 7.0°F-13.9°C 0.7°F-17.4°C 75% 0.5 mph SW0.8 kmh SW 0.9 mph1.4 kmh 30.06 in1017.9 mb 0.00 in0.0 mm 0.00 in/hr0.0 mm/hr 0.00 in0.0 mm
12:37 AM 7.0°F-13.9°C 0.7°F-17.4°C 75% 0.4 mph WSW0.6 kmh WSW 0.7 mph1.1 kmh 30.06 in1017.9 mb 0.00 in0.0 mm 0.00 in/hr0.0 mm/hr 0.00 in0.0 mm
12:42 AM 6.8°F-14.0°C 0.5°F-17.5°C 75% 0.7 mph SW1.1 kmh SW 0.9 mph1.4 kmh 30.06 in1017.9 mb 0.00 in0.0 mm 0.00 in/hr0.0 mm/hr 0.00 in0.0 mm
12:47 AM 6.7°F-14.1°C 0.4°F-17.6°C 75% 1.0 mph SW1.6 kmh SW 1.1 mph1.8 kmh 30.06 in1017.9 mb 0.00 in0.0 mm 0.00 in/hr0.0 mm/hr 0.00 in0.0 mm
12:53 AM 6.3°F-14.3°C 0.0°F-17.8°C 75% 1.2 mph SW1.9 kmh SW 1.6 mph2.6 kmh 30.06 in1017.9 mb 0.00 in0.0 mm 0.00 in/hr0.0 mm/hr 0.00 in0.0 mm
12:58 AM 6.1°F-14.4°C -0.2°F-17.9°C 75% 0.9 mph SW1.4 kmh SW 1.6 mph2.6 kmh 30.06 in1017.9 mb 0.00 in0.0 mm 0.00 in/hr0.0 mm/hr 0.00 in0.0 mm
01:03 AM 6.1°F-14.4°C -0.2°F-17.9°C 75% Calm Calm 1.1 mph1.8 kmh 30.06 in1017.9 mb 0.00 in0.0 mm 0.00 in/hr0.0 mm/hr 0.00 in0.0 mm
01:08 AM 5.9°F-14.5°C -0.4°F-18.0°C 75% 0.7 mph SW1.1 kmh SW 1.1 mph1.8 kmh 30.06 in1017.9 mb 0.00 in0.0 mm 0.00 in/hr0.0 mm/hr 0.00 in0.0 mm
01:14 AM 5.8°F-14.6°C -0.5°F-18.1°C 75% 1.1 mph SW1.8 kmh SW 1.3 mph2.1 kmh 30.07 in1018.3 mb 0.00 in0.0 mm 0.00 in/hr0.0 mm/hr 0.00 in0.0 mm
01:20 AM 5.6°F-14.7°C -0.7°F-18.2°C 75% 0.8 mph SW1.3 kmh SW 1.3 mph2.1 kmh 30.07 in1018.3 mb 0.00 in0.0 mm 0.00 in/hr0.0 mm/hr 0.00 in0.0 mm
01:25 AM 5.4°F-14.8°C -0.9°F-18.3°C 75% 1.1 mph SW1.8 kmh SW 1.1 mph1.8 kmh 30.07 in1018.3 mb 0.00 in0.0 mm 0.00 in/hr0.0 mm/hr 0.00 in0.0 mm
01:30 AM 5.4°F-14.8°C -0.9°F-18.3°C 75% 1.2 mph SW1.9 kmh SW 1.6 mph2.6 kmh 30.07 in1018.3 mb 0.00 in0.0 mm 0.00 in/hr0.0 mm/hr 0.00 in0.0 mm
01:36 AM 5.4°F-14.8°C -0.9°F-18.3°C 75% 0.9 mph SW1.4 kmh SW 1.6 mph2.6 kmh 30.07 in1018.3 mb 0.00 in0.0 mm 0.00 in/hr0.0 mm/hr 0.00 in0.0 mm
01:42 AM 5.4°F-14.8°C -0.9°F-18.3°C 75% 0.2 mph WSW0.3 kmh WSW 1.3 mph2.1 kmh 30.07 in1018.3 mb 0.00 in0.0 mm 0.00 in/hr0.0 mm/hr 0.00 in0.0 mm
01:47 AM 5.4°F-14.8°C -0.9°F-18.3°C 75% Calm Calm 1.3 mph2.1 kmh 30.07 in1018.3 mb 0.00 in0.0 mm 0.00 in/hr0.0 mm/hr 0.00 in0.0 mm
01:53 AM 5.4°F-14.8°C -0.9°F-18.3°C 75% 0.2 mph W0.3 kmh W 1.3 mph2.1 kmh 30.06 in1017.9 mb 0.00 in0.0 mm 0.00 in/hr0.0 mm/hr 0.00 in0.0 mm
01:58 AM 5.4°F-14.8°C -0.6°F-18.1°C 76% Calm Calm 1.3 mph2.1 kmh 30.06 in1017.9 mb 0.00 in0.0 mm 0.00 in/hr0.0 mm/hr 0.00 in0.0 mm
02:03 AM 5.4°F-14.8°C -0.6°F-18.1°C 76% Calm Calm -- 30.06 in1017.9 mb 0.00 in0.0 mm 0.00 in/hr0.0 mm/hr 0.00 in0.0 mm
02:09 AM 5.4°F-14.8°C -0.6°F-18.1°C 76% 1.4 mph SW2.3 kmh SW 1.8 mph2.9 kmh 30.07 in1018.3 mb 0.00 in0.0 mm 0.00 in/hr0.0 mm/hr 0.00 in0.0 mm
02:14 AM 5.4°F-14.8°C -0.6°F-18.1°C 76% 0.5 mph WSW0.8 kmh WSW 1.8 mph2.9 kmh 30.07 in1018.3 mb 0.00 in0.0 mm 0.00 in/hr0.0 mm/hr 0.00 in0.0 mm
02:19 AM 5.4°F-14.8°C -0.6°F-18.1°C 76% Calm Calm 1.6 mph2.6 kmh 30.06 in1017.9 mb 0.00 in0.0 mm 0.00 in/hr0.0 mm/hr 0.00 in0.0 mm
02:24 AM 5.4°F-14.8°C -0.6°F-18.1°C 76% Calm Calm 0.2 mph0.3 kmh 30.06 in1017.9 mb 0.00 in0.0 mm 0.00 in/hr0.0 mm/hr 0.00 in0.0 mm
02:30 AM 5.4°F-14.8°C -0.6°F-18.1°C 76% Calm Calm -- 30.06 in1017.9 mb 0.00 in0.0 mm 0.00 in/hr0.0 mm/hr 0.00 in0.0 mm
02:36 AM 5.4°F-14.8°C -0.6°F-18.1°C 76% 1.1 mph SW1.8 kmh SW 1.1 mph1.8 kmh 30.06 in1017.9 mb 0.00 in0.0 mm 0.00 in/hr0.0 mm/hr 0.00 in0.0 mm
02:41 AM 5.2°F-14.9°C -0.8°F-18.2°C 76% Calm Calm 1.1 mph1.8 kmh 30.06 in1017.9 mb 0.00 in0.0 mm 0.00 in/hr0.0 mm/hr 0.00 in0.0 mm
02:47 AM 5.0°F-15.0°C -1.0°F-18.3°C 76% 0.7 mph SW1.1 kmh SW 1.1 mph1.8 kmh 30.06 in1017.9 mb 0.00 in0.0 mm 0.00 in/hr0.0 mm/hr 0.00 in0.0 mm
02:53 AM 5.0°F-15.0°C -1.0°F-18.3°C 76% 1.0 mph SW1.6 kmh SW 1.6 mph2.6 kmh 30.06 in1017.9 mb 0.00 in0.0 mm 0.00 in/hr0.0 mm/hr 0.00 in0.0 mm
02:58 AM 4.7°F-15.2°C -1.3°F-18.5°C 76% 0.1 mph SW0.2 kmh SW 1.6 mph2.6 kmh 30.05 in1017.6 mb 0.00 in0.0 mm 0.00 in/hr0.0 mm/hr 0.00 in0.0 mm
03:04 AM 4.9°F-15.1°C -1.2°F-18.4°C 76% 0.2 mph SW0.3 kmh SW 1.1 mph1.8 kmh 30.05 in1017.6 mb 0.00 in0.0 mm 0.00 in/hr0.0 mm/hr 0.00 in0.0 mm
03:10 AM 4.9°F-15.1°C -1.2°F-18.4°C 76% 1.0 mph WSW1.6 kmh WSW 1.3 mph2.1 kmh 30.05 in1017.6 mb 0.00 in0.0 mm 0.00 in/hr0.0 mm/hr 0.00 in0.0 mm
03:15 AM 4.9°F-15.1°C -1.2°F-18.4°C 76% 0.4 mph SW0.6 kmh SW 1.3 mph2.1 kmh 30.05 in1017.6 mb 0.00 in0.0 mm 0.00 in/hr0.0 mm/hr 0.00 in0.0 mm
03:20 AM 4.9°F-15.1°C -1.2°F-18.4°C 76% Calm Calm 0.9 mph1.4 kmh 30.05 in1017.6 mb 0.00 in0.0 mm 0.00 in/hr0.0 mm/hr 0.00 in0.0 mm
03:25 AM 5.0°F-15.0°C -1.0°F-18.3°C 76% 1.0 mph SW1.6 kmh SW 1.3 mph2.1 kmh 30.05 in1017.6 mb 0.00 in0.0 mm 0.00 in/hr0.0 mm/hr 0.00 in0.0 mm
03:30 AM 5.0°F-15.0°C -1.0°F-18.3°C 76% 0.8 mph SW1.3 kmh SW 1.3 mph2.1 kmh 30.05 in1017.6 mb 0.00 in0.0 mm 0.00 in/hr0.0 mm/hr 0.00 in0.0 mm
03:36 AM 5.2°F-14.9°C -0.8°F-18.2°C 76% 0.4 mph SW0.6 kmh SW 1.3 mph2.1 kmh 30.05 in1017.6 mb 0.00 in0.0 mm 0.00 in/hr0.0 mm/hr 0.00 in0.0 mm
03:41 AM 5.4°F-14.8°C -0.6°F-18.1°C 76% Calm Calm 0.9 mph1.4 kmh 30.05 in1017.6 mb 0.00 in0.0 mm 0.00 in/hr0.0 mm/hr 0.00 in0.0 mm
03:46 AM 5.8°F-14.6°C 0.0°F-17.8°C 77% Calm Calm 0.9 mph1.4 kmh 30.05 in1017.6 mb 0.00 in0.0 mm 0.00 in/hr0.0 mm/hr 0.00 in0.0 mm
03:51 AM 5.8°F-14.6°C -0.3°F-17.9°C 76% 0.5 mph SW0.8 kmh SW 0.9 mph1.4 kmh 30.06 in1017.9 mb 0.00 in0.0 mm 0.00 in/hr0.0 mm/hr 0.00 in0.0 mm
03:57 AM 6.1°F-14.4°C 0.1°F-17.7°C 76% Calm Calm 0.9 mph1.4 kmh 30.06 in1017.9 mb 0.00 in0.0 mm 0.00 in/hr0.0 mm/hr 0.00 in0.0 mm
04:02 AM 6.1°F-14.4°C 0.1°F-17.7°C 76% 0.4 mph SW0.6 kmh SW 0.7 mph1.1 kmh 30.06 in1017.9 mb 0.00 in0.0 mm 0.00 in/hr0.0 mm/hr 0.00 in0.0 mm
04:07 AM 6.3°F-14.3°C 0.5°F-17.5°C 77% 0.4 mph SW0.6 kmh SW 0.9 mph1.4 kmh 30.05 in1017.6 mb 0.00 in0.0 mm 0.00 in/hr0.0 mm/hr 0.00 in0.0 mm
04:12 AM 6.3°F-14.3°C 0.3°F-17.6°C 76% 0.9 mph SW1.4 kmh SW 1.1 mph1.8 kmh 30.06 in1017.9 mb 0.00 in0.0 mm 0.00 in/hr0.0 mm/hr 0.00 in0.0 mm
04:18 AM 6.5°F-14.2°C 0.7°F-17.4°C 77% 0.8 mph SW1.3 kmh SW 1.1 mph1.8 kmh 30.06 in1017.9 mb 0.00 in0.0 mm 0.00 in/hr0.0 mm/hr 0.00 in0.0 mm
04:23 AM 6.5°F-14.2°C 0.5°F-17.5°C 76% Calm Calm 0.9 mph1.4 kmh 30.06 in1017.9 mb 0.00 in0.0 mm 0.00 in/hr0.0 mm/hr 0.00 in0.0 mm
04:28 AM 6.5°F-14.2°C 0.5°F-17.5°C 76% 0.2 mph SW0.3 kmh SW 0.4 mph0.6 kmh 30.06 in1017.9 mb 0.00 in0.0 mm 0.00 in/hr0.0 mm/hr 0.00 in0.0 mm
04:34 AM 6.7°F-14.1°C 0.9°F-17.3°C 77% Calm Calm 0.4 mph0.6 kmh 30.05 in1017.6 mb 0.00 in0.0 mm 0.00 in/hr0.0 mm/hr 0.00 in0.0 mm
04:39 AM 6.8°F-14.0°C 1.1°F-17.2°C 77% Calm Calm 0.4 mph0.6 kmh 30.06 in1017.9 mb 0.00 in0.0 mm 0.00 in/hr0.0 mm/hr 0.00 in0.0 mm
04:44 AM 6.8°F-14.0°C 1.1°F-17.2°C 77% Calm Calm -- 30.05 in1017.6 mb 0.00 in0.0 mm 0.00 in/hr0.0 mm/hr 0.00 in0.0 mm
04:49 AM 7.0°F-13.9°C 1.3°F-17.1°C 77% Calm Calm -- 30.05 in1017.6 mb 0.00 in0.0 mm 0.00 in/hr0.0 mm/hr 0.00 in0.0 mm
04:54 AM 7.0°F-13.9°C 1.3°F-17.1°C 77% Calm Calm -- 30.05 in1017.6 mb 0.00 in0.0 mm 0.00 in/hr0.0 mm/hr 0.00 in0.0 mm
04:59 AM 7.0°F-13.9°C 1.3°F-17.1°C 77% 0.2 mph SW0.3 kmh SW 1.1 mph1.8 kmh 30.05 in1017.6 mb 0.00 in0.0 mm 0.00 in/hr0.0 mm/hr 0.00 in0.0 mm
05:05 AM 7.0°F-13.9°C 1.3°F-17.1°C 77% 0.7 mph SW1.1 kmh SW 1.1 mph1.8 kmh 30.05 in1017.6 mb 0.00 in0.0 mm 0.00 in/hr0.0 mm/hr 0.00 in0.0 mm
05:10 AM 7.2°F-13.8°C 1.4°F-17.0°C 77% 0.2 mph SW0.3 kmh SW 1.1 mph1.8 kmh 30.05 in1017.6 mb 0.00 in0.0 mm 0.00 in/hr0.0 mm/hr 0.00 in0.0 mm
05:15 AM 7.6°F-13.6°C 2.2°F-16.6°C 78% Calm Calm 0.7 mph1.1 kmh 30.05 in1017.6 mb 0.00 in0.0 mm 0.00 in/hr0.0 mm/hr 0.00 in0.0 mm
05:20 AM 7.6°F-13.6°C 2.2°F-16.6°C 78% Calm Calm 0.2 mph0.3 kmh 30.05 in1017.6 mb 0.00 in0.0 mm 0.00 in/hr0.0 mm/hr 0.00 in0.0 mm
05:26 AM 7.6°F-13.6°C 2.2°F-16.6°C 78% Calm Calm -- 30.06 in1017.9 mb 0.00 in0.0 mm 0.00 in/hr0.0 mm/hr 0.00 in0.0 mm
05:31 AM 7.7°F-13.5°C 2.4°F-16.4°C 78% Calm Calm -- 30.06 in1017.9 mb 0.00 in0.0 mm 0.00 in/hr0.0 mm/hr 0.00 in0.0 mm
05:37 AM 7.7°F-13.5°C 2.4°F-16.4°C 78% Calm Calm -- 30.06 in1017.9 mb 0.00 in0.0 mm 0.00 in/hr0.0 mm/hr 0.00 in0.0 mm
05:42 AM 7.7°F-13.5°C 2.4°F-16.4°C 78% Calm Calm -- 30.06 in1017.9 mb 0.00 in0.0 mm 0.00 in/hr0.0 mm/hr 0.00 in0.0 mm
05:47 AM 7.7°F-13.5°C 2.4°F-16.4°C 78% Calm Calm -- 30.06 in1017.9 mb 0.00 in0.0 mm 0.00 in/hr0.0 mm/hr 0.00 in0.0 mm
05:53 AM 7.7°F-13.5°C 2.4°F-16.4°C 78% Calm Calm -- 30.06 in1017.9 mb 0.00 in0.0 mm 0.00 in/hr0.0 mm/hr 0.00 in0.0 mm
05:58 AM 7.7°F-13.5°C 2.4°F-16.4°C 78% Calm Calm -- 30.06 in1017.9 mb 0.00 in0.0 mm 0.00 in/hr0.0 mm/hr 0.00 in0.0 mm
06:03 AM 7.9°F-13.4°C 2.5°F-16.4°C 78% Calm Calm -- 30.06 in1017.9 mb 0.00 in0.0 mm 0.00 in/hr0.0 mm/hr 0.00 in0.0 mm
06:08 AM 7.9°F-13.4°C 2.5°F-16.4°C 78% Calm Calm -- 30.06 in1017.9 mb 0.00 in0.0 mm 0.00 in/hr0.0 mm/hr 0.00 in0.0 mm
06:13 AM 8.1°F-13.3°C 2.7°F-16.3°C 78% Calm Calm -- 30.06 in1017.9 mb 0.00 in0.0 mm 0.00 in/hr0.0 mm/hr 0.00 in0.0 mm
06:19 AM 8.1°F-13.3°C 2.7°F-16.3°C 78% Calm Calm -- 30.06 in1017.9 mb 0.00 in0.0 mm 0.00 in/hr0.0 mm/hr 0.00 in0.0 mm
06:24 AM 8.3°F-13.2°C 2.9°F-16.2°C 78% 0.1 mph WSW0.2 kmh WSW 0.2 mph0.3 kmh 30.06 in1017.9 mb 0.00 in0.0 mm 0.00 in/hr0.0 mm/hr 0.00 in0.0 mm
06:29 AM 8.3°F-13.2°C 3.2°F-16.0°C 79% Calm Calm 0.2 mph0.3 kmh 30.07 in1018.3 mb 0.00 in0.0 mm 0.00 in/hr0.0 mm/hr 0.00 in0.0 mm
06:34 AM 8.3°F-13.2°C 3.2°F-16.0°C 79% Calm Calm -- 30.07 in1018.3 mb 0.00 in0.0 mm 0.00 in/hr0.0 mm/hr 0.00 in0.0 mm
06:39 AM 8.5°F-13.1°C 3.3°F-15.9°C 79% Calm Calm -- 30.07 in1018.3 mb 0.00 in0.0 mm 0.00 in/hr0.0 mm/hr 0.00 in0.0 mm
06:44 AM 8.6°F-13.0°C 3.5°F-15.8°C 79% Calm Calm -- 30.07 in1018.3 mb 0.00 in0.0 mm 0.00 in/hr0.0 mm/hr 0.00 in0.0 mm
06:50 AM 8.6°F-13.0°C 3.5°F-15.8°C 79% Calm Calm -- 30.08 in1018.6 mb 0.00 in0.0 mm 0.00 in/hr0.0 mm/hr 0.00 in0.0 mm
06:55 AM 8.8°F-12.9°C 3.7°F-15.7°C 79% Calm Calm -- 30.08 in1018.6 mb 0.00 in0.0 mm 0.00 in/hr0.0 mm/hr 0.00 in0.0 mm
07:01 AM 9.0°F-12.8°C 3.8°F-15.7°C 79% Calm Calm -- 30.07 in1018.3 mb 0.00 in0.0 mm 0.00 in/hr0.0 mm/hr 0.00 in0.0 mm
07:06 AM 9.0°F-12.8°C 3.8°F-15.7°C 79% Calm Calm -- 30.08 in1018.6 mb 0.00 in0.0 mm 0.00 in/hr0.0 mm/hr 0.00 in0.0 mm
07:12 AM 9.0°F-12.8°C 3.8°F-15.7°C 79% Calm Calm -- 30.07 in1018.3 mb 0.00 in0.0 mm 0.00 in/hr0.0 mm/hr 0.00 in0.0 mm
07:17 AM 9.0°F-12.8°C 3.5°F-15.8°C 78% Calm Calm -- 30.07 in1018.3 mb 0.00 in0.0 mm 0.00 in/hr0.0 mm/hr 0.00 in0.0 mm
07:22 AM 9.0°F-12.8°C 3.5°F-15.8°C 78% Calm Calm -- 30.07 in1018.3 mb 0.00 in0.0 mm 0.00 in/hr0.0 mm/hr 0.00 in0.0 mm
07:27 AM 9.0°F-12.8°C 3.5°F-15.8°C 78% Calm Calm -- 30.07 in1018.3 mb 0.00 in0.0 mm 0.00 in/hr0.0 mm/hr 0.00 in0.0 mm
07:32 AM 9.2°F-12.7°C 3.7°F-15.7°C 78% Calm Calm -- 30.08 in1018.6 mb 0.00 in0.0 mm 0.00 in/hr0.0 mm/hr 0.00 in0.0 mm
07:38 AM 9.2°F-12.7°C 3.7°F-15.7°C 78% Calm Calm -- 30.07 in1018.3 mb 0.00 in0.0 mm 0.00 in/hr0.0 mm/hr 0.00 in0.0 mm
07:43 AM 9.4°F-12.6°C 3.9°F-15.6°C 78% Calm Calm -- 30.08 in1018.6 mb 0.00 in0.0 mm 0.00 in/hr0.0 mm/hr 0.00 in0.0 mm
07:48 AM 9.5°F-12.5°C 4.1°F-15.5°C 78% Calm Calm -- 30.08 in1018.6 mb 0.00 in0.0 mm 0.00 in/hr0.0 mm/hr 0.00 in0.0 mm
07:53 AM 9.7°F-12.4°C 4.1°F-15.5°C 78% Calm Calm -- 30.08 in1018.6 mb 0.00 in0.0 mm 0.00 in/hr0.0 mm/hr 0.00 in0.0 mm
07:58 AM 9.9°F-12.3°C 4.3°F-15.4°C 78% Calm Calm -- 30.03 in1016.9 mb 0.00 in0.0 mm 0.00 in/hr0.0 mm/hr 0.00 in0.0 mm
08:04 AM 10.4°F-12.0°C 4.9°F-15.1°C 78% Calm Calm 0.2 mph0.3 kmh 30.04 in1017.3 mb 0.00 in0.0 mm 0.00 in/hr0.0 mm/hr 0.00 in0.0 mm
08:09 AM 10.6°F-11.9°C 5.3°F-14.8°C 79% 0.6 mph NE1.0 kmh NE 0.7 mph1.1 kmh 30.03 in1016.9 mb 0.00 in0.0 mm 0.00 in/hr0.0 mm/hr 0.00 in0.0 mm
08:14 AM 10.8°F-11.8°C 5.8°F-14.6°C 80% 0.6 mph NE1.0 kmh NE 0.9 mph1.4 kmh 30.03 in1016.9 mb 0.00 in0.0 mm 0.00 in/hr0.0 mm/hr 0.00 in0.0 mm
08:19 AM 11.0°F-11.7°C 5.9°F-14.5°C 80% 0.8 mph NE1.3 kmh NE 1.1 mph1.8 kmh 30.04 in1017.3 mb 0.00 in0.0 mm 0.00 in/hr0.0 mm/hr 0.00 in0.0 mm
08:24 AM 11.3°F-11.5°C 6.6°F-14.1°C 81% 0.7 mph NE1.1 kmh NE 1.1 mph1.8 kmh 30.03 in1016.9 mb 0.00 in0.0 mm 0.00 in/hr0.0 mm/hr 0.00 in0.0 mm
08:30 AM 11.9°F-11.2°C 7.1°F-13.8°C 81% 0.7 mph NE1.1 kmh NE 1.1 mph1.8 kmh 30.04 in1017.3 mb 0.00 in0.0 mm 0.00 in/hr0.0 mm/hr 0.00 in0.0 mm
08:35 AM 12.2°F-11.0°C 7.5°F-13.6°C 81% 0.7 mph ENE1.1 kmh ENE 1.1 mph1.8 kmh 30.04 in1017.3 mb 0.00 in0.0 mm 0.00 in/hr0.0 mm/hr 0.00 in0.0 mm
08:40 AM 12.6°F-10.8°C 7.8°F-13.4°C 81% 1.0 mph NE1.6 kmh NE 1.1 mph1.8 kmh 30.04 in1017.3 mb 0.00 in0.0 mm 0.00 in/hr0.0 mm/hr 0.00 in0.0 mm
08:46 AM 12.6°F-10.8°C 7.8°F-13.4°C 81% 0.9 mph NE1.4 kmh NE 1.1 mph1.8 kmh 30.05 in1017.6 mb 0.00 in0.0 mm 0.00 in/hr0.0 mm/hr 0.00 in0.0 mm
08:51 AM 13.0°F-10.6°C 8.2°F-13.2°C 81% 1.0 mph ENE1.6 kmh ENE 1.8 mph2.9 kmh 30.05 in1017.6 mb 0.00 in0.0 mm 0.00 in/hr0.0 mm/hr 0.00 in0.0 mm
08:56 AM 13.3°F-10.4°C 8.6°F-13.0°C 81% 0.8 mph NE1.3 kmh NE 1.8 mph2.9 kmh 30.05 in1017.6 mb 0.00 in0.0 mm 0.00 in/hr0.0 mm/hr 0.00 in0.0 mm
09:02 AM 13.5°F-10.3°C 8.7°F-12.9°C 81% 1.3 mph NE2.1 kmh NE 1.8 mph2.9 kmh 30.05 in1017.6 mb 0.00 in0.0 mm 0.00 in/hr0.0 mm/hr 0.00 in0.0 mm
09:07 AM 13.7°F-10.2°C 9.2°F-12.7°C 82% 1.2 mph NE1.9 kmh NE 1.8 mph2.9 kmh 30.06 in1017.9 mb 0.00 in0.0 mm 0.00 in/hr0.0 mm/hr 0.00 in0.0 mm
09:13 AM 14.0°F-10.0°C 9.3°F-12.6°C 81% 0.7 mph NE1.1 kmh NE 1.8 mph2.9 kmh 30.06 in1017.9 mb 0.00 in0.0 mm 0.00 in/hr0.0 mm/hr 0.00 in0.0 mm
09:18 AM 14.6°F-9.7°C 9.8°F-12.3°C 81% 0.6 mph NE1.0 kmh NE 1.6 mph2.6 kmh 30.06 in1017.9 mb 0.00 in0.0 mm 0.00 in/hr0.0 mm/hr 0.00 in0.0 mm
09:23 AM 14.9°F-9.5°C 10.2°F-12.1°C 81% 1.6 mph ENE2.6 kmh ENE 1.8 mph2.9 kmh 30.07 in1018.3 mb 0.00 in0.0 mm 0.00 in/hr0.0 mm/hr 0.00 in0.0 mm
09:29 AM 15.5°F-9.2°C 10.7°F-11.8°C 81% 1.3 mph NE2.1 kmh NE 2.0 mph3.2 kmh 30.07 in1018.3 mb 0.00 in0.0 mm 0.00 in/hr0.0 mm/hr 0.00 in0.0 mm
09:34 AM 16.0°F-8.9°C 11.0°F-11.7°C 80% 1.7 mph E2.7 kmh E 2.0 mph3.2 kmh 30.07 in1018.3 mb 0.00 in0.0 mm 0.00 in/hr0.0 mm/hr 0.00 in0.0 mm
09:39 AM 16.4°F-8.7°C 11.0°F-11.7°C 79% 1.6 mph ENE2.6 kmh ENE 2.0 mph3.2 kmh 30.07 in1018.3 mb 0.00 in0.0 mm 0.00 in/hr0.0 mm/hr 0.00 in0.0 mm
09:44 AM 16.6°F-8.6°C 11.4°F-11.4°C 80% 1.0 mph NE1.6 kmh NE 2.2 mph3.5 kmh 30.07 in1018.3 mb 0.00 in0.0 mm 0.00 in/hr0.0 mm/hr 0.00 in0.0 mm
09:49 AM 17.1°F-8.3°C 11.6°F-11.3°C 79% 1.5 mph NE2.4 kmh NE 2.2 mph3.5 kmh 30.07 in1018.3 mb 0.00 in0.0 mm 0.00 in/hr0.0 mm/hr 0.00 in0.0 mm
09:55 AM 17.6°F-8.0°C 11.9°F-11.2°C 78% 1.5 mph NE2.4 kmh NE 2.2 mph3.5 kmh 30.07 in1018.3 mb 0.00 in0.0 mm 0.00 in/hr0.0 mm/hr 0.00 in0.0 mm
10:00 AM 17.8°F-7.9°C 12.1°F-11.1°C 78% 1.4 mph NNE2.3 kmh NNE 2.5 mph4.0 kmh 30.07 in1018.3 mb 0.00 in0.0 mm 0.00 in/hr0.0 mm/hr 0.00 in0.0 mm
10:05 AM 18.0°F-7.8°C 11.6°F-11.3°C 76% 1.1 mph NE1.8 kmh NE 2.5 mph4.0 kmh 30.07 in1018.3 mb 0.00 in0.0 mm 0.00 in/hr0.0 mm/hr 0.00 in0.0 mm
10:10 AM 18.4°F-7.6°C 12.2°F-11.0°C 77% 1.2 mph E1.9 kmh E 1.8 mph2.9 kmh 30.07 in1018.3 mb 0.00 in0.0 mm 0.00 in/hr0.0 mm/hr 0.00 in0.0 mm
10:16 AM 19.1°F-7.2°C 12.7°F-10.7°C 76% 1.1 mph NE1.8 kmh NE 1.8 mph2.9 kmh 30.08 in1018.6 mb 0.00 in0.0 mm 0.00 in/hr0.0 mm/hr 0.00 in0.0 mm
10:21 AM 19.8°F-6.8°C 13.1°F-10.5°C 75% 0.8 mph NNW1.3 kmh NNW 1.8 mph2.9 kmh 30.08 in1018.6 mb 0.00 in0.0 mm 0.00 in/hr0.0 mm/hr 0.00 in0.0 mm
10:26 AM 20.0°F-6.7°C 13.2°F-10.4°C 75% 0.6 mph NE1.0 kmh NE 1.3 mph2.1 kmh 30.08 in1018.6 mb 0.00 in0.0 mm 0.00 in/hr0.0 mm/hr 0.00 in0.0 mm
10:32 AM 20.5°F-6.4°C 13.5°F-10.3°C 74% 0.8 mph NE1.3 kmh NE 1.8 mph2.9 kmh 30.08 in1018.6 mb 0.00 in0.0 mm 0.00 in/hr0.0 mm/hr 0.00 in0.0 mm
10:37 AM 20.5°F-6.4°C 12.9°F-10.6°C 72% 1.8 mph N2.9 kmh N 2.5 mph4.0 kmh 30.08 in1018.6 mb 0.00 in0.0 mm 0.00 in/hr0.0 mm/hr 0.00 in0.0 mm
10:42 AM 20.9°F-6.2°C 13.5°F-10.3°C 73% 0.7 mph N1.1 kmh N 2.5 mph4.0 kmh 30.08 in1018.6 mb 0.00 in0.0 mm 0.00 in/hr0.0 mm/hr 0.00 in0.0 mm
10:48 AM 21.6°F-5.8°C 14.2°F-9.9°C 73% 1.0 mph ESE1.6 kmh ESE 1.6 mph2.6 kmh 30.08 in1018.6 mb 0.00 in0.0 mm 0.00 in/hr0.0 mm/hr 0.00 in0.0 mm
10:53 AM 22.0°F-5.6°C 13.7°F-10.2°C 70% 1.8 mph ENE2.9 kmh ENE 2.2 mph3.5 kmh 30.07 in1018.3 mb 0.00 in0.0 mm 0.00 in/hr0.0 mm/hr 0.00 in0.0 mm
10:58 AM 22.5°F-5.3°C 14.5°F-9.7°C 71% 0.3 mph NE0.5 kmh NE 2.2 mph3.5 kmh 30.07 in1018.3 mb 0.00 in0.0 mm 0.00 in/hr0.0 mm/hr 0.00 in0.0 mm
11:03 AM 22.7°F-5.2°C 14.7°F-9.6°C 71% 0.3 mph ESE0.5 kmh ESE 2.2 mph3.5 kmh 30.07 in1018.3 mb 0.00 in0.0 mm 0.00 in/hr0.0 mm/hr 0.00 in0.0 mm
11:09 AM 23.4°F-4.8°C 15.1°F-9.4°C 70% 1.3 mph ESE2.1 kmh ESE 2.5 mph4.0 kmh 30.07 in1018.3 mb 0.00 in0.0 mm 0.00 in/hr0.0 mm/hr 0.00 in0.0 mm
11:14 AM 24.1°F-4.4°C 15.8°F-9.0°C 70% 1.3 mph SSE2.1 kmh SSE 2.5 mph4.0 kmh 30.07 in1018.3 mb 0.00 in0.0 mm 0.00 in/hr0.0 mm/hr 0.00 in0.0 mm
11:20 AM 23.9°F-4.5°C 14.9°F-9.5°C 68% 0.8 mph SE1.3 kmh SE 3.4 mph5.5 kmh 30.07 in1018.3 mb 0.00 in0.0 mm 0.00 in/hr0.0 mm/hr 0.00 in0.0 mm
11:25 AM 24.3°F-4.3°C 15.2°F-9.3°C 68% 1.4 mph E2.3 kmh E 3.4 mph5.5 kmh 30.07 in1018.3 mb 0.00 in0.0 mm 0.00 in/hr0.0 mm/hr 0.00 in0.0 mm
11:30 AM 24.5°F-4.2°C 15.0°F-9.4°C 67% 2.6 mph E4.2 kmh E 3.4 mph5.5 kmh 30.07 in1018.3 mb 0.00 in0.0 mm 0.00 in/hr0.0 mm/hr 0.00 in0.0 mm
11:35 AM 24.8°F-4.0°C 15.0°F-9.4°C 66% 1.1 mph ENE1.8 kmh ENE 3.4 mph5.5 kmh 30.07 in1018.3 mb 0.00 in0.0 mm 0.00 in/hr0.0 mm/hr 0.00 in0.0 mm
11:41 AM 24.7°F-4.1°C 14.5°F-9.7°C 65% 0.9 mph E1.4 kmh E 1.8 mph2.9 kmh 30.07 in1018.3 mb 0.00 in0.0 mm 0.00 in/hr0.0 mm/hr 0.00 in0.0 mm
11:46 AM 25.0°F-3.9°C 15.6°F-9.1°C 67% 0.5 mph SSE0.8 kmh SSE 1.8 mph2.9 kmh 30.07 in1018.3 mb 0.00 in0.0 mm 0.00 in/hr0.0 mm/hr 0.00 in0.0 mm
11:51 AM 25.0°F-3.9°C 14.9°F-9.5°C 65% 2.2 mph E3.5 kmh E 3.4 mph5.5 kmh 30.07 in1018.3 mb 0.00 in0.0 mm 0.00 in/hr0.0 mm/hr 0.00 in0.0 mm
11:57 AM 25.7°F-3.5°C 16.2°F-8.8°C 67% 1.6 mph S2.6 kmh S 3.4 mph5.5 kmh 30.06 in1017.9 mb 0.00 in0.0 mm 0.00 in/hr0.0 mm/hr 0.00 in0.0 mm
12:02 PM 26.1°F-3.3°C 14.8°F-9.6°C 62% 1.9 mph NE3.1 kmh NE 2.7 mph4.3 kmh 30.06 in1017.9 mb 0.00 in0.0 mm 0.00 in/hr0.0 mm/hr 0.00 in0.0 mm
12:08 PM 26.1°F-3.3°C 15.5°F-9.2°C 64% 1.0 mph SSE1.6 kmh SSE 3.8 mph6.1 kmh 30.06 in1017.9 mb 0.00 in0.0 mm 0.00 in/hr0.0 mm/hr 0.00 in0.0 mm
12:12 PM 26.5°F-3.1°C 16.6°F-8.6°C 66% 1.2 mph SSE1.9 kmh SSE 3.8 mph6.1 kmh 30.06 in1017.9 mb 0.00 in0.0 mm 0.00 in/hr0.0 mm/hr 0.00 in0.0 mm
12:17 PM 27.2°F-2.7°C 17.3°F-8.2°C 66% 0.6 mph SW1.0 kmh SW 2.5 mph4.0 kmh 30.07 in1018.3 mb 0.00 in0.0 mm 0.00 in/hr0.0 mm/hr 0.00 in0.0 mm
12:22 PM 27.4°F-2.6°C 16.7°F-8.5°C 64% 2.8 mph SW4.5 kmh SW 3.6 mph5.8 kmh 30.06 in1017.9 mb 0.01 in0.3 mm 0.12 in/hr3.0 mm/hr 0.01 in0.3 mm
12:27 PM 27.2°F-2.7°C 16.6°F-8.6°C 64% 2.1 mph WSW3.4 kmh WSW 4.0 mph6.4 kmh 30.06 in1017.9 mb 0.01 in0.3 mm 0.00 in/hr0.0 mm/hr 0.01 in0.3 mm
12:32 PM 27.0°F-2.8°C 16.4°F-8.7°C 64% 3.4 mph W5.5 kmh W 4.0 mph6.4 kmh 30.06 in1017.9 mb 0.01 in0.3 mm 0.00 in/hr0.0 mm/hr 0.01 in0.3 mm
12:37 PM 26.3°F-3.2°C 15.3°F-9.3°C 63% 1.0 mph NW1.6 kmh NW 4.0 mph6.4 kmh 30.06 in1017.9 mb 0.01 in0.3 mm 0.00 in/hr0.0 mm/hr 0.01 in0.3 mm
12:43 PM 26.3°F-3.2°C 16.0°F-8.9°C 65% 1.7 mph SW2.7 kmh SW 3.1 mph5.0 kmh 30.06 in1017.9 mb 0.01 in0.3 mm 0.00 in/hr0.0 mm/hr 0.01 in0.3 mm
12:48 PM 26.8°F-2.9°C 16.6°F-8.6°C 65% 3.2 mph WSW5.1 kmh WSW 5.4 mph8.7 kmh 30.06 in1017.9 mb 0.01 in0.3 mm 0.00 in/hr0.0 mm/hr 0.01 in0.3 mm
12:53 PM 26.8°F-2.9°C 16.2°F-8.8°C 64% 1.4 mph WSW2.3 kmh WSW 5.4 mph8.7 kmh 30.06 in1017.9 mb 0.01 in0.3 mm 0.00 in/hr0.0 mm/hr 0.01 in0.3 mm
12:58 PM 26.6°F-3.0°C 15.7°F-9.1°C 63% 2.3 mph WNW3.7 kmh WNW 3.4 mph5.5 kmh 30.06 in1017.9 mb 0.01 in0.3 mm 0.00 in/hr0.0 mm/hr 0.01 in0.3 mm
01:04 PM 26.3°F-3.2°C 15.7°F-9.1°C 64% 2.7 mph NW4.3 kmh NW 3.4 mph5.5 kmh 30.06 in1017.9 mb 0.02 in0.5 mm 0.01 in/hr0.3 mm/hr 0.02 in0.5 mm
01:10 PM 26.1°F-3.3°C 15.8°F-9.0°C 65% 1.5 mph WNW2.4 kmh WNW 3.8 mph6.1 kmh 30.06 in1017.9 mb 0.02 in0.5 mm 0.00 in/hr0.0 mm/hr 0.02 in0.5 mm
01:15 PM 26.3°F-3.2°C 16.0°F-8.9°C 65% 2.9 mph WSW4.7 kmh WSW 4.9 mph7.9 kmh 30.06 in1017.9 mb 0.02 in0.5 mm 0.00 in/hr0.0 mm/hr 0.02 in0.5 mm
01:20 PM 26.1°F-3.3°C 15.1°F-9.4°C 63% 2.6 mph NW4.2 kmh NW 4.9 mph7.9 kmh 30.06 in1017.9 mb 0.01 in0.3 mm 0.00 in/hr0.0 mm/hr 0.02 in0.5 mm
01:25 PM 25.6°F-3.6°C 14.7°F-9.6°C 63% 1.2 mph W1.9 kmh W 4.5 mph7.2 kmh 30.06 in1017.9 mb 0.02 in0.5 mm 0.12 in/hr3.0 mm/hr 0.02 in0.5 mm
01:31 PM 25.4°F-3.7°C 14.5°F-9.7°C 63% 2.7 mph W4.3 kmh W 4.0 mph6.4 kmh 30.05 in1017.6 mb 0.02 in0.5 mm 0.00 in/hr0.0 mm/hr 0.03 in0.8 mm
01:36 PM 25.4°F-3.7°C 14.9°F-9.5°C 64% 4.0 mph SW6.4 kmh SW 4.9 mph7.9 kmh 30.05 in1017.6 mb 0.02 in0.5 mm 0.00 in/hr0.0 mm/hr 0.03 in0.8 mm
01:41 PM 25.6°F-3.6°C 15.0°F-9.4°C 64% 2.5 mph WSW4.0 kmh WSW 4.9 mph7.9 kmh 30.06 in1017.9 mb 0.02 in0.5 mm 0.00 in/hr0.0 mm/hr 0.03 in0.8 mm
01:46 PM 25.6°F-3.6°C 15.0°F-9.4°C 64% 1.9 mph WSW3.1 kmh WSW 4.5 mph7.2 kmh 30.06 in1017.9 mb 0.02 in0.5 mm 0.00 in/hr0.0 mm/hr 0.03 in0.8 mm
01:51 PM 25.7°F-3.5°C 15.2°F-9.3°C 64% 2.6 mph WSW4.2 kmh WSW 3.4 mph5.5 kmh 30.06 in1017.9 mb 0.02 in0.5 mm 0.00 in/hr0.0 mm/hr 0.03 in0.8 mm
01:56 PM 25.6°F-3.6°C 14.7°F-9.6°C 63% 2.1 mph W3.4 kmh W 3.8 mph6.1 kmh 30.07 in1018.3 mb 0.01 in0.3 mm 0.00 in/hr0.0 mm/hr 0.03 in0.8 mm
02:02 PM 25.4°F-3.7°C 14.1°F-9.9°C 62% 1.4 mph NNW2.3 kmh NNW 5.1 mph8.2 kmh 30.06 in1017.9 mb 0.02 in0.5 mm 0.01 in/hr0.3 mm/hr 0.04 in1.0 mm
02:07 PM 24.8°F-4.0°C 13.0°F-10.6°C 60% 1.8 mph WNW2.9 kmh WNW 5.1 mph8.2 kmh 30.06 in1017.9 mb 0.02 in0.5 mm 0.00 in/hr0.0 mm/hr 0.04 in1.0 mm
02:12 PM 24.3°F-4.3°C 12.8°F-10.7°C 61% 1.8 mph W2.9 kmh W 2.5 mph4.0 kmh 30.07 in1018.3 mb 0.02 in0.5 mm 0.00 in/hr0.0 mm/hr 0.04 in1.0 mm
02:18 PM 24.3°F-4.3°C 13.2°F-10.4°C 62% 3.0 mph NW4.8 kmh NW 7.2 mph11.6 kmh 30.07 in1018.3 mb 0.02 in0.5 mm 0.00 in/hr0.0 mm/hr 0.04 in1.0 mm
02:23 PM 23.9°F-4.5°C 12.8°F-10.7°C 62% 1.7 mph W2.7 kmh W 7.2 mph11.6 kmh 30.07 in1018.3 mb 0.02 in0.5 mm 0.00 in/hr0.0 mm/hr 0.04 in1.0 mm
02:28 PM 23.8°F-4.6°C 12.6°F-10.8°C 62% 1.6 mph NW2.6 kmh NW 4.5 mph7.2 kmh 30.07 in1018.3 mb 0.01 in0.3 mm 0.00 in/hr0.0 mm/hr 0.04 in1.0 mm
02:34 PM 23.4°F-4.8°C 11.9°F-11.2°C 61% 1.8 mph NW2.9 kmh NW 2.5 mph4.0 kmh 30.08 in1018.6 mb 0.01 in0.3 mm 0.00 in/hr0.0 mm/hr 0.04 in1.0 mm
02:39 PM 23.6°F-4.7°C 12.4°F-10.9°C 62% 1.5 mph W2.4 kmh W 4.7 mph7.6 kmh 30.08 in1018.6 mb 0.01 in0.3 mm 0.00 in/hr0.0 mm/hr 0.04 in1.0 mm
02:45 PM 23.4°F-4.8°C 12.3°F-10.9°C 62% 1.9 mph WSW3.1 kmh WSW 4.0 mph6.4 kmh 30.08 in1018.6 mb 0.01 in0.3 mm 0.00 in/hr0.0 mm/hr 0.04 in1.0 mm
02:50 PM 23.4°F-4.8°C 11.9°F-11.2°C 61% 1.1 mph WNW1.8 kmh WNW 3.8 mph6.1 kmh 30.08 in1018.6 mb 0.01 in0.3 mm 0.00 in/hr0.0 mm/hr 0.04 in1.0 mm
02:55 PM 23.4°F-4.8°C 12.3°F-10.9°C 62% 0.4 mph NW0.6 kmh NW 3.6 mph5.8 kmh 30.08 in1018.6 mb 0.01 in0.3 mm 0.00 in/hr0.0 mm/hr 0.04 in1.0 mm
03:01 PM 23.4°F-4.8°C 11.5°F-11.4°C 60% 1.7 mph N2.7 kmh N 3.6 mph5.8 kmh 30.08 in1018.6 mb 0.00 in0.0 mm 0.00 in/hr0.0 mm/hr 0.04 in1.0 mm
03:06 PM 23.2°F-4.9°C 11.7°F-11.3°C 61% 1.0 mph NW1.6 kmh NW 2.2 mph3.5 kmh 30.09 in1019.0 mb 0.00 in0.0 mm 0.00 in/hr0.0 mm/hr 0.04 in1.0 mm
03:11 PM 23.6°F-4.7°C 12.4°F-10.9°C 62% 1.8 mph W2.9 kmh W 3.4 mph5.5 kmh 30.09 in1019.0 mb 0.00 in0.0 mm 0.00 in/hr0.0 mm/hr 0.04 in1.0 mm
03:16 PM 23.4°F-4.8°C 12.3°F-10.9°C 62% 2.6 mph WSW4.2 kmh WSW 4.7 mph7.6 kmh 30.09 in1019.0 mb 0.00 in0.0 mm 0.00 in/hr0.0 mm/hr 0.04 in1.0 mm
03:22 PM 23.8°F-4.6°C 13.0°F-10.6°C 63% 3.6 mph WSW5.8 kmh WSW 5.4 mph8.7 kmh 30.09 in1019.0 mb 0.00 in0.0 mm 0.00 in/hr0.0 mm/hr 0.04 in1.0 mm
03:27 PM 23.8°F-4.6°C 12.6°F-10.8°C 62% 1.3 mph WSW2.1 kmh WSW 5.4 mph8.7 kmh 30.09 in1019.0 mb 0.00 in0.0 mm 0.00 in/hr0.0 mm/hr 0.04 in1.0 mm
03:32 PM 23.8°F-4.6°C 13.0°F-10.6°C 63% 0.9 mph WSW1.4 kmh WSW 4.0 mph6.4 kmh 30.09 in1019.0 mb 0.00 in0.0 mm 0.00 in/hr0.0 mm/hr 0.04 in1.0 mm
03:38 PM 23.8°F-4.6°C 13.3°F-10.4°C 64% 1.6 mph WSW2.6 kmh WSW 3.1 mph5.0 kmh 30.10 in1019.3 mb 0.01 in0.3 mm 0.10 in/hr2.5 mm/hr 0.05 in1.3 mm
03:43 PM 23.9°F-4.5°C 13.2°F-10.4°C 63% 0.4 mph N0.6 kmh N 2.0 mph3.2 kmh 30.10 in1019.3 mb 0.01 in0.3 mm 0.00 in/hr0.0 mm/hr 0.05 in1.3 mm
03:48 PM 23.6°F-4.7°C 13.2°F-10.4°C 64% 0.9 mph W1.4 kmh W 1.6 mph2.6 kmh 30.10 in1019.3 mb 0.01 in0.3 mm 0.00 in/hr0.0 mm/hr 0.05 in1.3 mm
03:54 PM 23.8°F-4.6°C 13.3°F-10.4°C 64% 2.4 mph WSW3.9 kmh WSW 3.6 mph5.8 kmh 30.10 in1019.3 mb 0.01 in0.3 mm 0.00 in/hr0.0 mm/hr 0.05 in1.3 mm
03:59 PM 23.8°F-4.6°C 13.7°F-10.2°C 65% 1.7 mph WSW2.7 kmh WSW 3.8 mph6.1 kmh 30.11 in1019.6 mb 0.01 in0.3 mm 0.00 in/hr0.0 mm/hr 0.05 in1.3 mm
04:04 PM 23.9°F-4.5°C 13.9°F-10.1°C 65% 1.0 mph WSW1.6 kmh WSW 2.5 mph4.0 kmh 30.11 in1019.6 mb 0.01 in0.3 mm 0.00 in/hr0.0 mm/hr 0.05 in1.3 mm
04:10 PM 23.9°F-4.5°C 13.9°F-10.1°C 65% 0.6 mph S1.0 kmh S 1.8 mph2.9 kmh 30.11 in1019.6 mb 0.01 in0.3 mm 0.00 in/hr0.0 mm/hr 0.05 in1.3 mm
04:15 PM 23.8°F-4.6°C 13.7°F-10.2°C 65% 1.1 mph WNW1.8 kmh WNW 1.6 mph2.6 kmh 30.11 in1019.6 mb 0.01 in0.3 mm 0.00 in/hr0.0 mm/hr 0.05 in1.3 mm
04:20 PM 23.4°F-4.8°C 13.3°F-10.4°C 65% 1.3 mph W2.1 kmh W 2.0 mph3.2 kmh 30.11 in1019.6 mb 0.01 in0.3 mm 0.00 in/hr0.0 mm/hr 0.05 in1.3 mm
04:25 PM 23.4°F-4.8°C 13.3°F-10.4°C 65% 0.2 mph NW0.3 kmh NW 2.0 mph3.2 kmh 30.12 in1020.0 mb 0.01 in0.3 mm 0.00 in/hr0.0 mm/hr 0.05 in1.3 mm
04:31 PM 23.0°F-5.0°C 13.0°F-10.6°C 65% 0.3 mph SSW0.5 kmh SSW 0.7 mph1.1 kmh 30.12 in1020.0 mb 0.01 in0.3 mm 0.00 in/hr0.0 mm/hr 0.05 in1.3 mm
04:36 PM 23.0°F-5.0°C 13.3°F-10.4°C 66% 0.8 mph WSW1.3 kmh WSW 1.1 mph1.8 kmh 30.12 in1020.0 mb 0.00 in0.0 mm 0.00 in/hr0.0 mm/hr 0.05 in1.3 mm
04:41 PM 22.9°F-5.1°C 13.1°F-10.5°C 66% Calm Calm 1.1 mph1.8 kmh 30.12 in1020.0 mb 0.00 in0.0 mm 0.00 in/hr0.0 mm/hr 0.05 in1.3 mm
04:47 PM 22.7°F-5.2°C 13.0°F-10.6°C 66% Calm Calm -- 30.12 in1020.0 mb 0.00 in0.0 mm 0.00 in/hr0.0 mm/hr 0.05 in1.3 mm
04:52 PM 22.5°F-5.3°C 12.8°F-10.7°C 66% Calm Calm -- 30.12 in1020.0 mb 0.00 in0.0 mm 0.00 in/hr0.0 mm/hr 0.05 in1.3 mm
04:57 PM 22.1°F-5.5°C 12.4°F-10.9°C 66% Calm Calm -- 30.13 in1020.3 mb 0.00 in0.0 mm 0.00 in/hr0.0 mm/hr 0.05 in1.3 mm
05:03 PM 21.8°F-5.7°C 11.8°F-11.2°C 65% 0.9 mph SW1.4 kmh SW 0.9 mph1.4 kmh 30.13 in1020.3 mb 0.00 in0.0 mm 0.00 in/hr0.0 mm/hr 0.05 in1.3 mm
05:08 PM 21.4°F-5.9°C 11.8°F-11.2°C 66% 0.8 mph SSW1.3 kmh SSW 1.1 mph1.8 kmh 30.13 in1020.3 mb 0.00 in0.0 mm 0.00 in/hr0.0 mm/hr 0.05 in1.3 mm
05:13 PM 21.1°F-6.1°C 11.4°F-11.4°C 66% 1.0 mph SSW1.6 kmh SSW 1.1 mph1.8 kmh 30.14 in1020.7 mb 0.00 in0.0 mm 0.00 in/hr0.0 mm/hr 0.05 in1.3 mm
05:18 PM 20.7°F-6.3°C 11.1°F-11.6°C 66% 0.6 mph SW1.0 kmh SW 1.1 mph1.8 kmh 30.14 in1020.7 mb 0.00 in0.0 mm 0.00 in/hr0.0 mm/hr 0.05 in1.3 mm
05:24 PM 20.2°F-6.6°C 10.9°F-11.7°C 67% 0.8 mph WSW1.3 kmh WSW 0.9 mph1.4 kmh 30.15 in1021.0 mb 0.00 in0.0 mm 0.00 in/hr0.0 mm/hr 0.05 in1.3 mm
05:29 PM 19.8°F-6.8°C 10.5°F-11.9°C 67% 1.0 mph SW1.6 kmh SW 1.1 mph1.8 kmh 30.15 in1021.0 mb 0.00 in0.0 mm 0.00 in/hr0.0 mm/hr 0.05 in1.3 mm
05:34 PM 19.4°F-7.0°C 10.2°F-12.1°C 67% 0.1 mph SW0.2 kmh SW 1.1 mph1.8 kmh 30.15 in1021.0 mb 0.00 in0.0 mm 0.00 in/hr0.0 mm/hr 0.05 in1.3 mm
05:39 PM 19.1°F-7.2°C 10.2°F-12.1°C 68% Calm Calm 0.7 mph1.1 kmh 30.15 in1021.0 mb 0.00 in0.0 mm 0.00 in/hr0.0 mm/hr 0.05 in1.3 mm
05:44 PM 18.7°F-7.4°C 9.8°F-12.3°C 68% 1.1 mph SW1.8 kmh SW 1.1 mph1.8 kmh 30.15 in1021.0 mb 0.00 in0.0 mm 0.00 in/hr0.0 mm/hr 0.05 in1.3 mm
05:49 PM 18.2°F-7.7°C 9.4°F-12.6°C 68% 0.7 mph SW1.1 kmh SW 1.1 mph1.8 kmh 30.15 in1021.0 mb 0.00 in0.0 mm 0.00 in/hr0.0 mm/hr 0.05 in1.3 mm
05:55 PM 17.6°F-8.0°C 9.2°F-12.7°C 69% 0.7 mph SW1.1 kmh SW 1.1 mph1.8 kmh 30.16 in1021.3 mb 0.00 in0.0 mm 0.00 in/hr0.0 mm/hr 0.05 in1.3 mm
06:02 PM 17.3°F-8.2°C 8.8°F-12.9°C 69% 0.8 mph SW1.3 kmh SW 1.1 mph1.8 kmh 30.16 in1021.3 mb 0.00 in0.0 mm 0.00 in/hr0.0 mm/hr 0.05 in1.3 mm
06:07 PM 16.9°F-8.4°C 8.5°F-13.1°C 69% 0.7 mph SW1.1 kmh SW 1.1 mph1.8 kmh 30.16 in1021.3 mb 0.00 in0.0 mm 0.00 in/hr0.0 mm/hr 0.05 in1.3 mm
06:13 PM 16.6°F-8.6°C 8.1°F-13.3°C 69% 0.6 mph SW1.0 kmh SW 1.1 mph1.8 kmh 30.17 in1021.7 mb 0.00 in0.0 mm 0.00 in/hr0.0 mm/hr 0.05 in1.3 mm
06:18 PM 16.2°F-8.8°C 8.1°F-13.3°C 70% 1.5 mph SW2.4 kmh SW 1.8 mph2.9 kmh 30.17 in1021.7 mb 0.00 in0.0 mm 0.00 in/hr0.0 mm/hr 0.05 in1.3 mm
06:23 PM 15.8°F-9.0°C 7.7°F-13.5°C 70% 0.9 mph SW1.4 kmh SW 1.8 mph2.9 kmh 30.17 in1021.7 mb 0.00 in0.0 mm 0.00 in/hr0.0 mm/hr 0.05 in1.3 mm
06:29 PM 15.5°F-9.2°C 7.4°F-13.7°C 70% 1.1 mph SW1.8 kmh SW 1.3 mph2.1 kmh 30.17 in1021.7 mb 0.00 in0.0 mm 0.00 in/hr0.0 mm/hr 0.05 in1.3 mm
06:34 PM 15.1°F-9.4°C 7.1°F-13.8°C 70% 1.2 mph SW1.9 kmh SW 1.3 mph2.1 kmh 30.18 in1022.0 mb 0.00 in0.0 mm 0.00 in/hr0.0 mm/hr 0.05 in1.3 mm
06:39 PM 14.8°F-9.6°C 6.8°F-14.0°C 70% Calm Calm 1.3 mph2.1 kmh 30.18 in1022.0 mb 0.00 in0.0 mm 0.00 in/hr0.0 mm/hr 0.05 in1.3 mm
06:44 PM 14.8°F-9.6°C 6.8°F-14.0°C 70% 0.7 mph SW1.1 kmh SW 1.1 mph1.8 kmh 30.18 in1022.0 mb 0.00 in0.0 mm 0.00 in/hr0.0 mm/hr 0.05 in1.3 mm
06:49 PM 14.4°F-9.8°C 6.8°F-14.0°C 71% 0.8 mph SW1.3 kmh SW 1.1 mph1.8 kmh 30.18 in1022.0 mb 0.00 in0.0 mm 0.00 in/hr0.0 mm/hr 0.05 in1.3 mm
06:55 PM 14.2°F-9.9°C 6.6°F-14.1°C 71% 1.5 mph SW2.4 kmh SW 1.6 mph2.6 kmh 30.18 in1022.0 mb 0.00 in0.0 mm 0.00 in/hr0.0 mm/hr 0.05 in1.3 mm
07:00 PM 14.0°F-10.0°C 6.4°F-14.2°C 71% 1.1 mph SW1.8 kmh SW 1.8 mph2.9 kmh 30.18 in1022.0 mb 0.00 in0.0 mm 0.00 in/hr0.0 mm/hr 0.05 in1.3 mm
07:06 PM 13.7°F-10.2°C 6.0°F-14.4°C 71% 1.1 mph SW1.8 kmh SW 1.8 mph2.9 kmh 30.18 in1022.0 mb 0.00 in0.0 mm 0.00 in/hr0.0 mm/hr 0.05 in1.3 mm
07:21 PM 13.3°F-10.4°C 5.9°F-14.5°C 72% 0.4 mph SW0.6 kmh SW 1.1 mph1.8 kmh 30.18 in1022.0 mb 0.00 in0.0 mm 0.00 in/hr0.0 mm/hr 0.05 in1.3 mm
07:27 PM 13.3°F-10.4°C 5.9°F-14.5°C 72% 0.6 mph W1.0 kmh W 0.7 mph1.1 kmh 30.18 in1022.0 mb 0.00 in0.0 mm 0.00 in/hr0.0 mm/hr 0.05 in1.3 mm
07:32 PM 13.3°F-10.4°C 5.9°F-14.5°C 72% 0.3 mph WSW0.5 kmh WSW 0.7 mph1.1 kmh 30.18 in1022.0 mb 0.00 in0.0 mm 0.00 in/hr0.0 mm/hr 0.05 in1.3 mm
07:38 PM 13.3°F-10.4°C 6.3°F-14.3°C 73% Calm Calm 0.7 mph1.1 kmh 30.18 in1022.0 mb 0.00 in0.0 mm 0.00 in/hr0.0 mm/hr 0.05 in1.3 mm
07:43 PM 13.1°F-10.5°C 6.1°F-14.4°C 73% 0.5 mph SW0.8 kmh SW 0.9 mph1.4 kmh 30.18 in1022.0 mb 0.00 in0.0 mm 0.00 in/hr0.0 mm/hr 0.05 in1.3 mm
07:48 PM 13.0°F-10.6°C 6.0°F-14.4°C 73% 1.0 mph SW1.6 kmh SW 1.1 mph1.8 kmh 30.18 in1022.0 mb 0.00 in0.0 mm 0.00 in/hr0.0 mm/hr 0.05 in1.3 mm
07:53 PM 13.0°F-10.6°C 6.0°F-14.4°C 73% 0.9 mph SW1.4 kmh SW 1.1 mph1.8 kmh 30.18 in1022.0 mb 0.00 in0.0 mm 0.00 in/hr0.0 mm/hr 0.05 in1.3 mm
07:58 PM 12.6°F-10.8°C 5.6°F-14.7°C 73% 0.6 mph SW1.0 kmh SW 1.1 mph1.8 kmh 30.18 in1022.0 mb 0.00 in0.0 mm 0.00 in/hr0.0 mm/hr 0.05 in1.3 mm
08:04 PM 12.6°F-10.8°C 5.6°F-14.7°C 73% 0.7 mph SW1.1 kmh SW 1.1 mph1.8 kmh 30.18 in1022.0 mb 0.00 in0.0 mm 0.00 in/hr0.0 mm/hr 0.05 in1.3 mm
08:09 PM 12.6°F-10.8°C 5.9°F-14.5°C 74% 0.8 mph SW1.3 kmh SW 1.1 mph1.8 kmh 30.18 in1022.0 mb 0.00 in0.0 mm 0.00 in/hr0.0 mm/hr 0.05 in1.3 mm
08:14 PM 12.4°F-10.9°C 5.7°F-14.6°C 74% 0.8 mph SW1.3 kmh SW 0.9 mph1.4 kmh 30.18 in1022.0 mb 0.00 in0.0 mm 0.00 in/hr0.0 mm/hr 0.05 in1.3 mm
08:20 PM 12.2°F-11.0°C 5.5°F-14.7°C 74% Calm Calm 0.9 mph1.4 kmh 30.18 in1022.0 mb 0.00 in0.0 mm 0.00 in/hr0.0 mm/hr 0.05 in1.3 mm
08:25 PM 12.1°F-11.1°C 5.3°F-14.8°C 74% Calm Calm 0.4 mph0.6 kmh 30.18 in1022.0 mb 0.00 in0.0 mm 0.00 in/hr0.0 mm/hr 0.05 in1.3 mm
08:30 PM 11.9°F-11.2°C 4.9°F-15.1°C 73% 1.0 mph SW1.6 kmh SW 1.3 mph2.1 kmh 30.18 in1022.0 mb 0.00 in0.0 mm 0.00 in/hr0.0 mm/hr 0.05 in1.3 mm
08:36 PM 11.9°F-11.2°C 4.9°F-15.1°C 73% Calm Calm 1.3 mph2.1 kmh 30.18 in1022.0 mb 0.00 in0.0 mm 0.00 in/hr0.0 mm/hr 0.05 in1.3 mm
08:41 PM 11.7°F-11.3°C 4.7°F-15.2°C 73% Calm Calm 0.4 mph0.6 kmh 30.18 in1022.0 mb 0.00 in0.0 mm 0.00 in/hr0.0 mm/hr 0.05 in1.3 mm
08:46 PM 11.7°F-11.3°C 4.7°F-15.2°C 73% 0.9 mph SW1.4 kmh SW 1.1 mph1.8 kmh 30.18 in1022.0 mb 0.00 in0.0 mm 0.00 in/hr0.0 mm/hr 0.05 in1.3 mm
08:51 PM 11.7°F-11.3°C 5.0°F-15.0°C 74% 1.1 mph WSW1.8 kmh WSW 1.1 mph1.8 kmh 30.19 in1022.4 mb 0.00 in0.0 mm 0.00 in/hr0.0 mm/hr 0.05 in1.3 mm
08:56 PM 11.5°F-11.4°C 4.8°F-15.1°C 74% 1.0 mph SW1.6 kmh SW 1.3 mph2.1 kmh 30.19 in1022.4 mb 0.00 in0.0 mm 0.00 in/hr0.0 mm/hr 0.05 in1.3 mm
09:02 PM 11.3°F-11.5°C 4.6°F-15.2°C 74% 0.8 mph SW1.3 kmh SW 1.3 mph2.1 kmh 30.19 in1022.4 mb 0.00 in0.0 mm 0.00 in/hr0.0 mm/hr 0.05 in1.3 mm
09:07 PM 11.5°F-11.4°C 4.8°F-15.1°C 74% 0.6 mph SW1.0 kmh SW 0.9 mph1.4 kmh 30.19 in1022.4 mb 0.00 in0.0 mm 0.00 in/hr0.0 mm/hr 0.05 in1.3 mm
09:12 PM 11.7°F-11.3°C 5.0°F-15.0°C 74% Calm Calm 0.9 mph1.4 kmh 30.19 in1022.4 mb 0.00 in0.0 mm 0.00 in/hr0.0 mm/hr 0.05 in1.3 mm
09:18 PM 11.9°F-11.2°C 5.4°F-14.8°C 75% Calm Calm -- 30.19 in1022.4 mb 0.00 in0.0 mm 0.00 in/hr0.0 mm/hr 0.05 in1.3 mm
09:23 PM 12.1°F-11.1°C 5.6°F-14.7°C 75% 0.3 mph SW0.5 kmh SW 1.1 mph1.8 kmh 30.20 in1022.7 mb 0.00 in0.0 mm 0.00 in/hr0.0 mm/hr 0.05 in1.3 mm
09:28 PM 12.4°F-10.9°C 5.9°F-14.5°C 75% 0.3 mph WSW0.5 kmh WSW 1.1 mph1.8 kmh 30.20 in1022.7 mb 0.00 in0.0 mm 0.00 in/hr0.0 mm/hr 0.05 in1.3 mm
09:33 PM 12.6°F-10.8°C 6.1°F-14.4°C 75% Calm Calm 1.1 mph1.8 kmh 30.20 in1022.7 mb 0.00 in0.0 mm 0.00 in/hr0.0 mm/hr 0.05 in1.3 mm
09:38 PM 12.8°F-10.7°C 6.6°F-14.1°C 76% 0.3 mph WSW0.5 kmh WSW 0.4 mph0.6 kmh 30.20 in1022.7 mb 0.00 in0.0 mm 0.00 in/hr0.0 mm/hr 0.05 in1.3 mm
09:43 PM 13.0°F-10.6°C 6.8°F-14.0°C 76% Calm Calm 0.4 mph0.6 kmh 30.20 in1022.7 mb 0.00 in0.0 mm 0.00 in/hr0.0 mm/hr 0.05 in1.3 mm
09:48 PM 13.3°F-10.4°C 7.1°F-13.8°C 76% Calm Calm -- 30.20 in1022.7 mb 0.00 in0.0 mm 0.00 in/hr0.0 mm/hr 0.05 in1.3 mm
09:53 PM 13.5°F-10.3°C 7.3°F-13.7°C 76% Calm Calm -- 30.20 in1022.7 mb 0.00 in0.0 mm 0.00 in/hr0.0 mm/hr 0.05 in1.3 mm
09:59 PM 13.7°F-10.2°C 7.5°F-13.6°C 76% Calm Calm -- 30.20 in1022.7 mb 0.00 in0.0 mm 0.00 in/hr0.0 mm/hr 0.05 in1.3 mm
10:04 PM 14.0°F-10.0°C 7.8°F-13.4°C 76% Calm Calm 0.2 mph0.3 kmh 30.20 in1022.7 mb 0.00 in0.0 mm 0.00 in/hr0.0 mm/hr 0.05 in1.3 mm
10:10 PM 14.0°F-10.0°C 7.8°F-13.4°C 76% 0.1 mph SW0.2 kmh SW 0.7 mph1.1 kmh 30.20 in1022.7 mb 0.00 in0.0 mm 0.00 in/hr0.0 mm/hr 0.05 in1.3 mm
10:15 PM 14.4°F-9.8°C 8.2°F-13.2°C 76% 0.1 mph SSW0.2 kmh SSW 1.1 mph1.8 kmh 30.20 in1022.7 mb 0.00 in0.0 mm 0.00 in/hr0.0 mm/hr 0.05 in1.3 mm
10:20 PM 14.8°F-9.6°C 8.8°F-12.9°C 77% Calm Calm 1.1 mph1.8 kmh 30.20 in1022.7 mb 0.00 in0.0 mm 0.00 in/hr0.0 mm/hr 0.05 in1.3 mm
10:25 PM 14.9°F-9.5°C 8.7°F-12.9°C 76% Calm Calm 1.1 mph1.8 kmh 30.20 in1022.7 mb 0.00 in0.0 mm 0.00 in/hr0.0 mm/hr 0.05 in1.3 mm
10:30 PM 15.1°F-9.4°C 9.2°F-12.7°C 77% 0.7 mph SW1.1 kmh SW 1.3 mph2.1 kmh 30.20 in1022.7 mb 0.00 in0.0 mm 0.00 in/hr0.0 mm/hr 0.05 in1.3 mm
10:35 PM 15.5°F-9.2°C 9.3°F-12.6°C 76% 0.2 mph S0.3 kmh S 1.3 mph2.1 kmh 30.20 in1022.7 mb 0.00 in0.0 mm 0.00 in/hr0.0 mm/hr 0.05 in1.3 mm
10:41 PM 15.7°F-9.1°C 10.0°F-12.2°C 78% 0.2 mph SSE0.3 kmh SSE 0.7 mph1.1 kmh 30.20 in1022.7 mb 0.00 in0.0 mm 0.00 in/hr0.0 mm/hr 0.05 in1.3 mm
10:46 PM 15.8°F-9.0°C 10.2°F-12.1°C 78% Calm Calm 1.1 mph1.8 kmh 30.21 in1023.0 mb 0.00 in0.0 mm 0.00 in/hr0.0 mm/hr 0.05 in1.3 mm
10:51 PM 16.2°F-8.8°C 10.5°F-11.9°C 78% 0.3 mph NE0.5 kmh NE 1.1 mph1.8 kmh 30.20 in1022.7 mb 0.00 in0.0 mm 0.00 in/hr0.0 mm/hr 0.05 in1.3 mm
10:56 PM 16.4°F-8.7°C 10.7°F-11.8°C 78% Calm Calm 0.7 mph1.1 kmh 30.21 in1023.0 mb 0.00 in0.0 mm 0.00 in/hr0.0 mm/hr 0.05 in1.3 mm
11:02 PM 16.7°F-8.5°C 11.0°F-11.7°C 78% Calm Calm 0.4 mph0.6 kmh 30.21 in1023.0 mb 0.00 in0.0 mm 0.00 in/hr0.0 mm/hr 0.05 in1.3 mm
11:07 PM 16.9°F-8.4°C 11.2°F-11.6°C 78% Calm Calm -- 30.21 in1023.0 mb 0.00 in0.0 mm 0.00 in/hr0.0 mm/hr 0.05 in1.3 mm
11:12 PM 17.1°F-8.3°C 11.3°F-11.5°C 78% Calm Calm -- 30.21 in1023.0 mb 0.00 in0.0 mm 0.00 in/hr0.0 mm/hr 0.05 in1.3 mm
11:17 PM 17.5°F-8.1°C 11.7°F-11.3°C 78% Calm Calm -- 30.22 in1023.4 mb 0.00 in0.0 mm 0.00 in/hr0.0 mm/hr 0.05 in1.3 mm
11:22 PM 17.6°F-8.0°C 11.9°F-11.2°C 78% Calm Calm -- 30.21 in1023.0 mb 0.00 in0.0 mm 0.00 in/hr0.0 mm/hr 0.05 in1.3 mm
11:27 PM 17.8°F-7.9°C 12.1°F-11.1°C 78% Calm Calm -- 30.21 in1023.0 mb 0.00 in0.0 mm 0.00 in/hr0.0 mm/hr 0.05 in1.3 mm
11:33 PM 18.0°F-7.8°C 12.3°F-10.9°C 78% Calm Calm -- 30.21 in1023.0 mb 0.00 in0.0 mm 0.00 in/hr0.0 mm/hr 0.05 in1.3 mm
11:38 PM 18.2°F-7.7°C 12.3°F-10.9°C 78% Calm Calm 0.2 mph0.3 kmh 30.21 in1023.0 mb 0.00 in0.0 mm 0.00 in/hr0.0 mm/hr 0.05 in1.3 mm
11:43 PM 18.4°F-7.6°C 12.5°F-10.8°C 78% Calm Calm 0.2 mph0.3 kmh 30.21 in1023.0 mb 0.00 in0.0 mm 0.00 in/hr0.0 mm/hr 0.05 in1.3 mm
11:48 PM 18.4°F-7.6°C 12.5°F-10.8°C 78% Calm Calm -- 30.21 in1023.0 mb 0.00 in0.0 mm 0.00 in/hr0.0 mm/hr 0.05 in1.3 mm
11:53 PM 18.5°F-7.5°C 12.7°F-10.7°C 78% Calm Calm -- 30.21 in1023.0 mb 0.00 in0.0 mm 0.00 in/hr0.0 mm/hr 0.05 in1.3 mm
11:58 PM 18.7°F-7.4°C 12.9°F-10.6°C 78% Calm Calm 0.2 mph0.3 kmh 30.21 in1023.0 mb 0.00 in0.0 mm 0.00 in/hr0.0 mm/hr 0.05 in1.3 mm